Time;durP1;ratioP1;P1;durP2;ratioP2;P2;SDS_P1;SDS_P2;PMS_P1;PMS_P2;Temp;Humidity;BMP_temperature;BMP_pressure;BME280_temperature;BME280_humidity;BME280_pressure;Samples;Min_cycle;Max_cycle;Signal;HPM_P1;HPM_P2
2021/12/03 00:02:13;;;;;;;10.45;5.72;;;;;;;;;;5095817;28;20031;-73
2021/12/03 00:04:39;;;;;;;12.40;6.78;;;;;;;;;;5096121;28;20047;-72
2021/12/03 00:07:05;;;;;;;13.73;7.20;;;;;;;;;;5095653;28;20028;-72
2021/12/03 00:09:35;;;;;;;14.93;6.97;;;;;;;;;;5077659;28;20054;-73
2021/12/03 00:12:01;;;;;;;18.15;10.32;;;;;;;;;;5096227;28;20024;-72
2021/12/03 00:14:28;;;;;;;19.42;11.68;;;;;;;;;;5077505;28;20476;-73
2021/12/03 00:16:54;;;;;;;20.70;13.20;;;;;;;;;;5096117;28;20024;-72
2021/12/03 00:19:20;;;;;;;20.52;12.18;;;;;;;;;;5077383;28;20028;-71
2021/12/03 00:21:46;;;;;;;19.30;12.57;;;;;;;;;;5095518;28;20024;-72
2021/12/03 00:24:13;;;;;;;20.77;12.60;;;;;;;;;;5077312;28;20531;-73
2021/12/03 00:26:39;;;;;;;22.67;12.45;;;;;;;;;;5095307;28;20040;-72
2021/12/03 00:29:05;;;;;;;20.20;12.10;;;;;;;;;;5077292;28;20101;-73
2021/12/03 00:31:31;;;;;;;17.17;10.27;;;;;;;;;;5077379;28;20028;-72
2021/12/03 00:33:58;;;;;;;19.15;10.73;;;;;;;;;;5077187;28;20020;-72
2021/12/03 00:36:26;;;;;;;20.60;10.40;;;;;;;;;;5077891;28;20024;-73
2021/12/03 00:38:55;;;;;;;17.80;10.10;;;;;;;;;;5095324;28;20016;-71
2021/12/03 00:41:22;;;;;;;15.98;9.70;;;;;;;;;;5077089;28;20043;-72
2021/12/03 00:43:52;;;;;;;15.15;8.27;;;;;;;;;;5060527;28;20035;-73
2021/12/03 00:46:18;;;;;;;13.18;7.30;;;;;;;;;;5076887;28;20131;-73
2021/12/03 00:48:46;;;;;;;13.48;7.15;;;;;;;;;;5076956;28;20024;-73
2021/12/03 00:51:12;;;;;;;12.98;6.97;;;;;;;;;;5095854;28;20123;-72
2021/12/03 00:53:39;;;;;;;13.93;6.90;;;;;;;;;;5076914;28;20081;-72
2021/12/03 00:56:07;;;;;;;15.85;7.28;;;;;;;;;;5077559;28;20035;-73
2021/12/03 00:58:33;;;;;;;13.88;6.90;;;;;;;;;;5076808;28;20024;-73
2021/12/03 01:00:59;;;;;;;12.95;6.82;;;;;;;;;;5095515;28;20549;-73
2021/12/03 01:03:25;;;;;;;14.98;6.57;;;;;;;;;;5076659;28;20063;-73
2021/12/03 01:05:52;;;;;;;14.27;7.07;;;;;;;;;;5076314;28;20051;-72
2021/12/03 01:08:18;;;;;;;14.25;6.25;;;;;;;;;;5076489;28;20020;-72
2021/12/03 01:10:44;;;;;;;14.25;7.38;;;;;;;;;;5076517;28;20119;-73
2021/12/03 01:13:10;;;;;;;9.15;5.90;;;;;;;;;;5076462;28;20027;-72
2021/12/03 01:15:37;;;;;;;11.27;5.53;;;;;;;;;;5076481;28;20039;-73
2021/12/03 01:18:04;;;;;;;12.73;6.30;;;;;;;;;;5076473;28;20024;-72
2021/12/03 01:20:31;;;;;;;11.73;5.80;;;;;;;;;;5076413;28;20036;-73
2021/12/03 01:22:58;;;;;;;9.45;5.68;;;;;;;;;;5094439;28;20115;-72
2021/12/03 01:25:24;;;;;;;9.48;5.47;;;;;;;;;;5076175;28;20530;-72
2021/12/03 01:27:52;;;;;;;8.43;5.40;;;;;;;;;;5076200;28;20028;-72
2021/12/03 01:30:20;;;;;;;8.32;4.82;;;;;;;;;;5076129;28;20024;-73
2021/12/03 01:32:46;;;;;;;10.52;5.10;;;;;;;;;;5094846;28;20028;-73
2021/12/03 01:35:13;;;;;;;10.25;4.70;;;;;;;;;;5076134;28;20078;-72
2021/12/03 01:37:40;;;;;;;10.32;4.63;;;;;;;;;;5075994;28;20024;-73
2021/12/03 01:40:07;;;;;;;8.25;4.30;;;;;;;;;;5076005;28;20541;-72
2021/12/03 01:42:34;;;;;;;9.15;4.70;;;;;;;;;;5075114;28;20020;-73
2021/12/03 01:45:00;;;;;;;9.45;4.40;;;;;;;;;;5094010;28;20058;-73
2021/12/03 01:47:27;;;;;;;8.43;4.30;;;;;;;;;;5075842;28;20036;-72
2021/12/03 01:49:53;;;;;;;10.00;4.95;;;;;;;;;;5075792;28;20118;-72
2021/12/03 01:52:19;;;;;;;11.75;4.80;;;;;;;;;;5075748;28;20043;-73
2021/12/03 01:54:45;;;;;;;10.57;4.97;;;;;;;;;;5093910;28;20020;-73
2021/12/03 01:57:12;;;;;;;9.98;4.75;;;;;;;;;;5094619;28;20032;-73
2021/12/03 01:59:38;;;;;;;11.07;5.10;;;;;;;;;;5075704;28;20044;-72
2021/12/03 02:02:04;;;;;;;11.10;5.15;;;;;;;;;;5075660;28;20023;-73
2021/12/03 02:04:30;;;;;;;8.55;4.40;;;;;;;;;;5094001;28;20032;-72
2021/12/03 02:06:57;;;;;;;9.27;4.45;;;;;;;;;;5075607;28;20075;-73
2021/12/03 02:09:23;;;;;;;10.80;5.68;;;;;;;;;;5058980;28;20484;-72
2021/12/03 02:11:49;;;;;;;11.98;5.30;;;;;;;;;;5075562;28;20024;-72
2021/12/03 02:14:15;;;;;;;9.93;4.78;;;;;;;;;;5075511;28;20102;-72
2021/12/03 02:16:45;;;;;;;10.65;4.35;;;;;;;;;;5093813;28;20020;-72
2021/12/03 02:19:11;;;;;;;9.32;4.22;;;;;;;;;;5075456;28;20507;-72
2021/12/03 02:21:37;;;;;;;9.57;4.25;;;;;;;;;;5075450;28;20024;-72
2021/12/03 02:24:03;;;;;;;12.38;4.25;;;;;;;;;;5093560;28;20028;-72
2021/12/03 02:26:30;;;;;;;8.05;3.33;;;;;;;;;;5058783;28;20090;-72
2021/12/03 02:28:56;;;;;;;6.65;3.33;;;;;;;;;;5075382;28;20078;-73
2021/12/03 02:31:23;;;;;;;7.95;3.28;;;;;;;;;;5075303;28;20036;-72
2021/12/03 02:33:50;;;;;;;8.20;3.13;;;;;;;;;;5093964;28;20457;-73
2021/12/03 02:36:16;;;;;;;9.57;3.30;;;;;;;;;;5075337;28;20069;-72
2021/12/03 02:38:43;;;;;;;6.53;3.00;;;;;;;;;;5075234;28;20047;-71
2021/12/03 02:41:09;;;;;;;7.05;2.63;;;;;;;;;;5093398;28;20063;-72
2021/12/03 02:43:35;;;;;;;5.65;2.80;;;;;;;;;;5075245;28;20056;-71
2021/12/03 02:46:02;;;;;;;6.75;2.83;;;;;;;;;;5093234;28;20036;-73
2021/12/03 02:48:28;;;;;;;7.53;2.65;;;;;;;;;;5075160;28;20401;-72
2021/12/03 02:50:56;;;;;;;5.93;3.22;;;;;;;;;;5075125;28;20487;-73
2021/12/03 02:53:22;;;;;;;5.68;2.63;;;;;;;;;;5075935;28;20024;-71
2021/12/03 02:55:49;;;;;;;7.75;2.55;;;;;;;;;;5079605;28;20028;-72
2021/12/03 02:58:15;;;;;;;6.45;2.65;;;;;;;;;;5079043;28;20480;-72
2021/12/03 03:00:42;;;;;;;6.20;2.50;;;;;;;;;;5079048;28;20035;-72
2021/12/03 03:03:08;;;;;;;6.43;2.70;;;;;;;;;;5097622;28;20036;-72
2021/12/03 03:05:35;;;;;;;6.85;2.38;;;;;;;;;;5096830;28;20492;-72
2021/12/03 03:08:02;;;;;;;6.57;2.75;;;;;;;;;;5078892;28;20035;-73
2021/12/03 03:10:30;;;;;;;8.70;2.40;;;;;;;;;;5078815;28;20027;-71
2021/12/03 03:12:57;;;;;;;5.03;2.08;;;;;;;;;;5078788;28;20118;-71
2021/12/03 03:15:23;;;;;;;5.68;2.47;;;;;;;;;;5096834;28;20028;-73
2021/12/03 03:17:50;;;;;;;7.20;2.30;;;;;;;;;;5096921;28;20027;-73
2021/12/03 03:20:17;;;;;;;5.97;2.17;;;;;;;;;;5078559;28;20039;-72
2021/12/03 03:22:43;;;;;;;6.80;2.13;;;;;;;;;;5078574;28;20020;-72
2021/12/03 03:25:12;;;;;;;8.07;2.47;;;;;;;;;;5097190;28;20055;-73
2021/12/03 03:27:38;;;;;;;4.90;2.28;;;;;;;;;;5078563;28;20027;-73
2021/12/03 03:30:06;;;;;;;7.13;2.33;;;;;;;;;;5097247;28;20020;-72
2021/12/03 03:32:32;;;;;;;3.75;1.65;;;;;;;;;;5078456;28;20488;-73
2021/12/03 03:34:58;;;;;;;5.53;2.22;;;;;;;;;;5096575;28;20024;-73
2021/12/03 03:37:24;;;;;;;7.57;2.60;;;;;;;;;;5096456;28;20031;-72
2021/12/03 03:39:51;;;;;;;6.55;2.63;;;;;;;;;;5061697;28;20024;-72
2021/12/03 03:42:17;;;;;;;5.25;2.33;;;;;;;;;;5078249;28;20027;-73
2021/12/03 03:44:43;;;;;;;6.28;2.35;;;;;;;;;;5078987;28;20028;-73
2021/12/03 03:47:10;;;;;;;8.60;2.75;;;;;;;;;;5096227;28;20480;-72
2021/12/03 03:49:36;;;;;;;6.30;2.08;;;;;;;;;;5078137;28;20465;-72
2021/12/03 03:52:02;;;;;;;5.22;2.28;;;;;;;;;;5096292;28;20489;-72
2021/12/03 03:54:29;;;;;;;6.28;1.90;;;;;;;;;;5078019;28;20031;-72
2021/12/03 03:56:55;;;;;;;5.10;2.00;;;;;;;;;;5077965;28;20032;-72
2021/12/03 03:59:21;;;;;;;7.38;2.58;;;;;;;;;;5077891;28;20077;-73
2021/12/03 04:01:48;;;;;;;7.80;2.10;;;;;;;;;;5077864;28;20119;-73
2021/12/03 04:04:15;;;;;;;6.50;2.13;;;;;;;;;;5077695;28;20111;-72
2021/12/03 04:06:41;;;;;;;4.97;2.10;;;;;;;;;;5076782;28;20036;-72
2021/12/03 04:09:08;;;;;;;3.78;1.80;;;;;;;;;;5095955;28;20483;-72
2021/12/03 04:11:34;;;;;;;4.97;2.05;;;;;;;;;;5077800;28;20028;-72
2021/12/03 04:14:00;;;;;;;4.78;1.88;;;;;;;;;;5096397;28;20020;-73
2021/12/03 04:16:28;;;;;;;5.88;1.70;;;;;;;;;;5077648;28;20503;-72
2021/12/03 04:18:54;;;;;;;4.82;1.92;;;;;;;;;;5077575;28;20089;-73
2021/12/03 04:21:22;;;;;;;9.77;1.75;;;;;;;;;;5095585;28;20050;-73
2021/12/03 04:23:48;;;;;;;4.65;2.05;;;;;;;;;;5077500;28;20024;-72
2021/12/03 04:26:14;;;;;;;5.03;2.03;;;;;;;;;;5077410;28;20055;-72
2021/12/03 04:28:40;;;;;;;3.58;1.77;;;;;;;;;;5077415;28;20058;-73
2021/12/03 04:31:07;;;;;;;6.20;1.98;;;;;;;;;;5077317;28;20031;-73
2021/12/03 04:33:33;;;;;;;3.22;1.50;;;;;;;;;;5095351;28;20024;-73
2021/12/03 04:35:59;;;;;;;6.30;1.88;;;;;;;;;;5077254;28;20055;-73
2021/12/03 04:38:25;;;;;;;6.45;1.48;;;;;;;;;;5095880;28;20030;-73
2021/12/03 04:40:51;;;;;;;6.93;1.77;;;;;;;;;;5077084;28;20039;-73
2021/12/03 04:43:18;;;;;;;4.38;1.65;;;;;;;;;;5077106;28;20035;-72
2021/12/03 04:45:44;;;;;;;4.30;1.20;;;;;;;;;;5076955;28;20032;-72
2021/12/03 04:48:10;;;;;;;5.15;1.85;;;;;;;;;;5077041;28;20028;-73
2021/12/03 04:50:38;;;;;;;5.80;1.73;;;;;;;;;;5076906;28;20391;-73
2021/12/03 04:53:04;;;;;;;6.13;1.83;;;;;;;;;;5076862;28;20435;-73
2021/12/03 04:55:31;;;;;;;3.13;1.40;;;;;;;;;;5076856;28;20526;-72
2021/12/03 04:57:58;;;;;;;6.65;2.10;;;;;;;;;;5094903;28;20017;-72
2021/12/03 05:00:27;;;;;;;4.45;1.40;;;;;;;;;;5094975;28;20108;-73
2021/12/03 05:02:54;;;;;;;4.32;1.25;;;;;;;;;;5076627;28;20020;-73
2021/12/03 05:05:23;;;;;;;2.78;1.38;;;;;;;;;;5076385;28;20062;-72
2021/12/03 05:07:58;;;;;;;3.28;1.42;;;;;;;;;;5095294;28;20020;-72
2021/12/03 05:10:35;;;;;;;3.88;1.45;;;;;;;;;;5076635;28;20353;-73
2021/12/03 05:13:02;;;;;;;5.53;1.70;;;;;;;;;;5076637;28;20480;-73
2021/12/03 05:15:28;;;;;;;4.53;1.30;;;;;;;;;;5076424;28;20452;-73
2021/12/03 05:17:54;;;;;;;3.58;1.40;;;;;;;;;;5076262;28;20476;-73
2021/12/03 05:20:21;;;;;;;3.45;1.45;;;;;;;;;;5076349;28;20024;-72
2021/12/03 05:22:47;;;;;;;3.63;1.30;;;;;;;;;;5076365;28;20024;-72
2021/12/03 05:25:13;;;;;;;2.92;1.10;;;;;;;;;;5076175;28;20051;-73
2021/12/03 05:27:40;;;;;;;3.53;1.25;;;;;;;;;;5076250;28;20024;-73
2021/12/03 05:30:08;;;;;;;4.93;1.45;;;;;;;;;;5094332;28;20038;-71
2021/12/03 05:32:34;;;;;;;6.32;1.33;;;;;;;;;;5076086;28;20027;-72
2021/12/03 05:35:00;;;;;;;3.67;1.17;;;;;;;;;;5094533;28;20423;-73
2021/12/03 05:37:26;;;;;;;4.13;1.17;;;;;;;;;;5094168;28;20525;-72
2021/12/03 05:39:52;;;;;;;2.95;1.23;;;;;;;;;;5094123;28;20078;-72
2021/12/03 05:42:19;;;;;;;2.78;1.23;;;;;;;;;;5075988;28;20024;-72
2021/12/03 05:44:45;;;;;;;3.90;1.25;;;;;;;;;;5094574;28;20427;-72
2021/12/03 05:47:11;;;;;;;5.85;1.30;;;;;;;;;;5094247;28;20122;-72
2021/12/03 05:49:37;;;;;;;3.97;0.93;;;;;;;;;;5075815;28;20459;-72
2021/12/03 05:52:03;;;;;;;4.13;1.02;;;;;;;;;;5075796;28;20028;-72
2021/12/03 05:54:30;;;;;;;3.28;1.38;;;;;;;;;;5075770;28;20032;-72
2021/12/03 05:56:56;;;;;;;5.20;1.38;;;;;;;;;;5075719;28;20024;-71
2021/12/03 05:59:22;;;;;;;2.72;0.90;;;;;;;;;;5075733;28;20028;-71
2021/12/03 06:01:48;;;;;;;4.68;1.20;;;;;;;;;;5075757;28;20040;-72
2021/12/03 06:04:14;;;;;;;3.28;1.08;;;;;;;;;;5075437;28;20606;-73
2021/12/03 06:06:40;;;;;;;3.58;1.05;;;;;;;;;;5076465;28;20036;-73
2021/12/03 06:09:06;;;;;;;5.50;1.30;;;;;;;;;;5075613;28;20030;-70
2021/12/03 06:11:32;;;;;;;4.20;1.45;;;;;;;;;;5094251;28;20086;-72
2021/12/03 06:13:59;;;;;;;4.80;1.67;;;;;;;;;;5093757;28;20465;-71
2021/12/03 06:16:25;;;;;;;10.05;1.40;;;;;;;;;;5075512;28;20036;-71
2021/12/03 06:18:51;;;;;;;7.43;3.90;;;;;;;;;;5075452;28;20024;-72
2021/12/03 06:21:17;;;;;;;7.72;3.40;;;;;;;;;;5075412;28;20070;-72
2021/12/03 06:23:43;;;;;;;11.38;4.00;;;;;;;;;;5093535;28;20024;-72
2021/12/03 06:26:10;;;;;;;11.85;3.72;;;;;;;;;;5075330;28;20039;-72
2021/12/03 06:28:38;;;;;;;6.63;2.58;;;;;;;;;;5093151;28;20388;-71
2021/12/03 06:31:05;;;;;;;10.02;3.80;;;;;;;;;;5075368;28;20105;-71
2021/12/03 06:33:31;;;;;;;7.78;3.00;;;;;;;;;;5075330;28;20473;-71
2021/12/03 06:35:58;;;;;;;4.90;1.67;;;;;;;;;;5075311;28;20509;-73
2021/12/03 06:38:24;;;;;;;8.68;2.33;;;;;;;;;;5093326;28;20024;-74
2021/12/03 06:40:51;;;;;;;6.32;2.63;;;;;;;;;;5075215;28;20035;-72
2021/12/03 06:43:18;;;;;;;8.52;1.52;;;;;;;;;;5075220;28;20526;-75
2021/12/03 06:45:44;;;;;;;3.47;1.40;;;;;;;;;;5093170;28;20476;-75
2021/12/03 06:48:11;;;;;;;4.60;1.55;;;;;;;;;;5093494;28;20024;-73
2021/12/03 06:50:38;;;;;;;4.85;0.90;;;;;;;;;;5075213;28;20028;-74
2021/12/03 06:53:07;;;;;;;5.38;1.40;;;;;;;;;;5093519;28;20024;-75
2021/12/03 06:55:43;;;;;;;4.72;1.17;;;;;;;;;;5075957;28;20074;-72
2021/12/03 06:58:09;;;;;;;3.15;1.30;;;;;;;;;;5075972;28;20120;-74
2021/12/03 07:00:36;;;;;;;10.65;2.78;;;;;;;;;;5075099;28;20507;-74
2021/12/03 07:03:02;;;;;;;8.52;3.05;;;;;;;;;;5093162;28;20024;-71
2021/12/03 07:05:28;;;;;;;11.70;3.40;;;;;;;;;;5074755;28;20056;-73
2021/12/03 07:07:54;;;;;;;11.23;3.20;;;;;;;;;;5075002;28;20074;-71
2021/12/03 07:10:20;;;;;;;12.70;3.47;;;;;;;;;;5074942;28;20027;-74
2021/12/03 07:12:47;;;;;;;7.90;3.13;;;;;;;;;;5075029;28;20028;-72
2021/12/03 07:15:16;;;;;;;11.60;3.42;;;;;;;;;;5075657;28;20029;-72
2021/12/03 07:17:42;;;;;;;12.70;4.15;;;;;;;;;;5093080;28;20170;-73
2021/12/03 07:20:09;;;;;;;13.60;4.57;;;;;;;;;;5074831;28;20029;-73
2021/12/03 07:22:36;;;;;;;13.32;3.10;;;;;;;;;;5074900;28;20392;-73
2021/12/03 07:25:04;;;;;;;9.00;3.30;;;;;;;;;;5093554;28;20028;-74
2021/12/03 07:27:30;;;;;;;5.25;1.80;;;;;;;;;;5074680;28;20102;-74
2021/12/03 07:29:56;;;;;;;14.60;2.45;;;;;;;;;;5074854;28;20027;-72
2021/12/03 07:32:23;;;;;;;5.88;1.60;;;;;;;;;;5075499;28;20056;-72
2021/12/03 07:34:50;;;;;;;11.15;4.07;;;;;;;;;;5074705;28;20507;-74
2021/12/03 07:37:17;;;;;;;17.52;5.90;;;;;;;;;;5092864;28;20024;-74
2021/12/03 07:39:44;;;;;;;12.45;3.83;;;;;;;;;;5093071;28;20082;-74
2021/12/03 07:42:10;;;;;;;6.93;3.00;;;;;;;;;;5095239;28;20035;-74
2021/12/03 07:44:37;;;;;;;4.15;2.22;;;;;;;;;;5096341;28;20027;-74
2021/12/03 07:47:03;;;;;;;5.97;1.98;;;;;;;;;;5097063;28;20085;-74
2021/12/03 07:49:30;;;;;;;6.32;1.77;;;;;;;;;;5096576;28;20149;-74
2021/12/03 07:51:56;;;;;;;3.92;1.70;;;;;;;;;;5096145;28;20039;-73
2021/12/03 07:54:23;;;;;;;5.57;2.08;;;;;;;;;;5078122;28;20068;-74
2021/12/03 07:56:49;;;;;;;5.32;2.00;;;;;;;;;;5078024;28;20119;-74
2021/12/03 07:59:15;;;;;;;6.95;2.80;;;;;;;;;;5078013;28;20031;-73
2021/12/03 08:01:42;;;;;;;5.57;2.00;;;;;;;;;;5077948;28;20028;-73
2021/12/03 08:04:09;;;;;;;7.40;2.15;;;;;;;;;;5077653;28;20032;-73
2021/12/03 08:06:38;;;;;;;17.02;2.72;;;;;;;;;;5077759;28;20040;-74
2021/12/03 08:09:04;;;;;;;6.38;2.25;;;;;;;;;;5077791;28;20020;-74
2021/12/03 08:11:31;;;;;;;8.13;2.00;;;;;;;;;;5095876;28;20031;-74
2021/12/03 08:13:57;;;;;;;8.07;1.80;;;;;;;;;;5095744;28;20033;-73
2021/12/03 08:16:23;;;;;;;4.90;2.42;;;;;;;;;;5096070;28;20024;-72
2021/12/03 08:18:49;;;;;;;6.13;2.17;;;;;;;;;;5077546;28;20384;-72
2021/12/03 08:21:16;;;;;;;4.82;1.98;;;;;;;;;;5095616;28;20103;-73
2021/12/03 08:23:42;;;;;;;4.38;1.73;;;;;;;;;;5095554;28;20099;-73
2021/12/03 08:26:08;;;;;;;3.75;1.63;;;;;;;;;;5077302;28;20072;-74
2021/12/03 08:28:35;;;;;;;6.30;2.20;;;;;;;;;;5077380;28;20031;-74
2021/12/03 08:31:01;;;;;;;6.30;1.70;;;;;;;;;;5095772;28;20028;-74
2021/12/03 08:33:28;;;;;;;4.30;2.00;;;;;;;;;;5095286;28;20026;-74
2021/12/03 08:35:54;;;;;;;6.93;2.08;;;;;;;;;;5095354;28;20059;-74
2021/12/03 08:38:20;;;;;;;8.05;2.03;;;;;;;;;;5095363;28;20073;-73
2021/12/03 08:40:46;;;;;;;3.90;1.48;;;;;;;;;;5076897;28;20081;-71
2021/12/03 08:43:12;;;;;;;7.03;1.83;;;;;;;;;;5095727;28;20020;-72
2021/12/03 08:45:40;;;;;;;4.65;1.40;;;;;;;;;;5076957;28;20488;-72
2021/12/03 08:48:07;;;;;;;5.05;0.98;;;;;;;;;;5095141;28;20115;-75
2021/12/03 08:50:36;;;;;;;7.95;1.40;;;;;;;;;;5095135;28;20099;-71
2021/12/03 08:53:14;;;;;;;2.80;0.98;;;;;;;;;;5076500;28;20044;-72
2021/12/03 08:55:41;;;;;;;4.45;1.50;;;;;;;;;;5076875;28;20150;-72
2021/12/03 08:58:09;;;;;;;5.88;1.23;;;;;;;;;;5094938;28;20024;-72
2021/12/03 09:00:36;;;;;;;3.05;1.48;;;;;;;;;;5076671;28;20028;-71
2021/12/03 09:03:02;;;;;;;2.72;1.20;;;;;;;;;;5076685;28;20495;-73
2021/12/03 09:05:31;;;;;;;6.78;1.10;;;;;;;;;;5094765;28;20059;-73
2021/12/03 09:07:57;;;;;;;3.15;1.60;;;;;;;;;;5094780;28;20051;-72
2021/12/03 09:10:25;;;;;;;9.45;1.35;;;;;;;;;;5095218;28;20135;-71
2021/12/03 09:12:52;;;;;;;4.50;1.60;;;;;;;;;;5076520;28;20032;-72
2021/12/03 09:15:23;;;;;;;4.18;1.50;;;;;;;;;;5094685;28;20023;-72
2021/12/03 09:22:57;;;;;;;4.65;1.67;;;;;;;;;;5094510;28;20031;-72
2021/12/03 09:25:32;;;;;;;3.15;1.38;;;;;;;;;;5076190;28;20492;-72
2021/12/03 09:28:02;;;;;;;2.50;1.48;;;;;;;;;;5094508;28;20034;-73
2021/12/03 09:30:35;;;;;;;3.30;1.50;;;;;;;;;;5076243;28;20039;-72
2021/12/03 09:33:01;;;;;;;;;;;;;;;;;;5076593;28;20473;-73
2021/12/03 09:35:29;;;;;;;4.60;1.88;;;;;;;;;;5094206;28;19903;-73
2021/12/03 09:37:55;;;;;;;4.78;1.83;;;;;;;;;;5076038;28;20031;-73
2021/12/03 09:40:25;;;;;;;6.47;2.30;;;;;;;;;;5094908;28;20456;-73
2021/12/03 09:42:51;;;;;;;6.82;2.20;;;;;;;;;;5075980;28;20027;-72
2021/12/03 09:45:17;;;;;;;4.63;1.73;;;;;;;;;;5076013;28;20036;-71
2021/12/03 09:47:44;;;;;;;4.45;1.63;;;;;;;;;;5075779;28;20030;-73
2021/12/03 09:50:14;;;;;;;3.25;1.67;;;;;;;;;;5093945;28;20073;-73
2021/12/03 09:55:15;;;;;;;3.58;1.65;;;;;;;;;;5094710;28;20491;-72
2021/12/03 09:58:45;;;;;;;6.05;1.80;;;;;;;;;;5093872;28;20023;-73
2021/12/03 10:14:35;;;;;;;3.80;1.50;;;;;;;;;;5084984;28;20037;-73
2021/12/03 10:20:11;;;;;;;4.05;1.50;;;;;;;;;;5094466;28;20032;-73
2021/12/03 10:51:56;;;;;;;4.30;1.70;;;;;;;;;;5093181;28;20085;-73
2021/12/03 10:57:07;;;;;;;4.55;2.10;;;;;;;;;;5093071;28;20042;-73
2021/12/03 12:58:04;;;;;;;8.93;3.72;;;;;;;;;;5095109;28;20113;-73
2021/12/03 13:27:34;;;;;;;5.07;2.70;;;;;;;;;;5095449;28;20491;-73
2021/12/03 14:14:51;;;;;;;12.60;4.60;;;;;;;;;;5113145;28;20047;-73
2021/12/03 14:18:22;;;;;;;5.97;2.17;;;;;;;;;;5102287;28;20043;-72
2021/12/03 14:46:02;;;;;;;14.98;4.90;;;;;;;;;;5113679;28;20059;-72
2021/12/03 14:51:09;;;;;;;8.30;2.78;;;;;;;;;;5095701;28;20032;-72
2021/12/03 14:56:16;;;;;;;7.03;2.92;;;;;;;;;;5097255;28;20040;-72
2021/12/03 15:04:41;;;;;;;5.45;3.00;;;;;;;;;;5098730;28;20028;-72
2021/12/03 15:06:54;;;;;;;14.40;5.60;;;;;;;;;;5092148;28;20096;-72
2021/12/03 15:09:27;;;;;;;10.60;4.80;;;;;;;;;;5117270;28;20058;-72
2021/12/03 15:12:17;;;;;;;6.60;2.92;;;;;;;;;;5099076;28;20031;-72
2021/12/03 15:23:29;;;;;;;11.18;5.22;;;;;;;;;;5085332;28;20077;-72
2021/12/03 15:31:05;;;;;;;14.57;5.28;;;;;;;;;;5116264;28;20127;-74
2021/12/03 15:36:54;;;;;;;14.23;4.20;;;;;;;;;;5117555;28;20141;-73
2021/12/03 15:39:39;;;;;;;7.32;3.08;;;;;;;;;;5116259;28;20028;-73
2021/12/03 16:06:56;;;;;;;8.85;4.20;;;;;;;;;;5116352;28;20480;-73
2021/12/03 16:12:01;;;;;;;25.20;8.52;;;;;;;;;;5116892;28;20475;-73
2021/12/03 16:20:08;;;;;;;18.33;6.75;;;;;;;;;;5086718;28;20027;-74
2021/12/03 16:22:44;;;;;;;19.27;6.70;;;;;;;;;;5097945;28;20023;-73
2021/12/03 16:43:31;;;;;;;24.63;8.65;;;;;;;;;;5116028;28;20039;-74
2021/12/03 16:52:29;;;;;;;15.30;4.78;;;;;;;;;;5116464;28;20034;-74
2021/12/03 16:54:57;;;;;;;10.95;3.90;;;;;;;;;;5097206;28;20025;-74
2021/12/03 16:57:28;;;;;;;11.57;4.93;;;;;;;;;;5097160;28;20035;-74
2021/12/03 16:59:56;;;;;;;14.02;5.63;;;;;;;;;;5097092;28;20019;-73
2021/12/03 17:02:40;;;;;;;6.30;2.95;;;;;;;;;;5097050;28;20387;-73
2021/12/03 17:05:24;;;;;;;10.38;3.90;;;;;;;;;;5093430;28;20048;-72
2021/12/03 17:10:58;;;;;;;65.22;15.32;;;;;;;;;;5095044;28;19957;-73
2021/12/03 17:30:08;;;;;;;27.70;9.18;;;;;;;;;;5094718;28;20043;-74
2021/12/03 17:56:43;;;;;;;16.63;7.57;;;;;;;;;;5093806;28;20078;-74
2021/12/03 17:59:19;;;;;;;19.73;8.98;;;;;;;;;;5092604;28;20100;-73
2021/12/03 18:12:48;;;;;;;15.85;7.95;;;;;;;;;;5093731;28;20396;-73
2021/12/03 18:46:32;;;;;;;23.25;9.80;;;;;;;;;;5072634;28;20377;-72
2021/12/03 18:55:53;;;;;;;38.50;14.70;;;;;;;;;;5072116;28;20032;-72
2021/12/03 18:58:23;;;;;;;32.05;13.68;;;;;;;;;;5073068;28;20078;-73
2021/12/03 19:00:51;;;;;;;40.70;15.88;;;;;;;;;;5071592;28;20029;-73
2021/12/03 19:03:28;;;;;;;43.15;16.95;;;;;;;;;;5071635;28;20027;-71
2021/12/03 19:08:38;;;;;;;40.40;17.95;;;;;;;;;;5093140;28;20031;-73
2021/12/03 19:11:08;;;;;;;51.63;20.55;;;;;;;;;;5075079;28;20043;-73
2021/12/03 19:13:38;;;;;;;54.53;22.58;;;;;;;;;;5075023;28;20483;-72
2021/12/03 19:16:07;;;;;;;53.28;22.75;;;;;;;;;;5093010;28;20017;-73
2021/12/03 19:18:33;;;;;;;57.80;24.13;;;;;;;;;;5074966;28;20052;-72
2021/12/03 19:21:05;;;;;;;58.38;23.38;;;;;;;;;;5093588;28;20032;-74
2021/12/03 19:23:31;;;;;;;49.50;22.77;;;;;;;;;;5074939;28;20048;-73
2021/12/03 19:25:57;;;;;;;72.00;26.98;;;;;;;;;;5093563;28;20028;-73
2021/12/03 19:28:23;;;;;;;65.30;24.50;;;;;;;;;;5093024;28;20024;-74
2021/12/03 19:30:49;;;;;;;82.97;31.63;;;;;;;;;;5074893;28;20117;-73
2021/12/03 19:33:15;;;;;;;79.53;32.60;;;;;;;;;;5074416;28;20170;-73
2021/12/03 19:35:41;;;;;;;88.03;33.53;;;;;;;;;;5075069;28;20059;-72
2021/12/03 19:38:09;;;;;;;70.30;27.15;;;;;;;;;;5096654;28;20059;-72
2021/12/03 19:40:38;;;;;;;79.53;27.02;;;;;;;;;;5096576;28;20095;-72
2021/12/03 19:43:12;;;;;;;58.08;24.45;;;;;;;;;;5078429;28;20028;-72
2021/12/03 19:45:47;;;;;;;55.78;25.20;;;;;;;;;;5078326;28;20020;-72
2021/12/03 19:48:15;;;;;;;68.70;24.83;;;;;;;;;;5097069;28;20487;-71
2021/12/03 19:50:43;;;;;;;68.07;26.92;;;;;;;;;;5096390;28;20013;-73
2021/12/03 19:55:40;;;;;;;85.88;30.90;;;;;;;;;;5096215;28;20024;-73
2021/12/03 19:58:07;;;;;;;85.57;30.55;;;;;;;;;;5078468;28;20446;-72
2021/12/03 20:00:33;;;;;;;90.55;31.85;;;;;;;;;;5078077;28;20016;-73
2021/12/03 20:02:59;;;;;;;77.45;32.08;;;;;;;;;;5077931;28;20514;-73
2021/12/03 20:05:25;;;;;;;92.55;33.25;;;;;;;;;;5095912;28;20040;-73
2021/12/03 20:07:53;;;;;;;87.07;29.98;;;;;;;;;;5061312;28;20510;-71
2021/12/03 20:10:20;;;;;;;82.47;30.33;;;;;;;;;;5096567;28;20133;-71
2021/12/03 20:12:47;;;;;;;83.30;28.92;;;;;;;;;;5095928;28;20573;-71
2021/12/03 20:15:22;;;;;;;73.35;29.15;;;;;;;;;;5077854;28;20046;-72
2021/12/03 20:18:05;;;;;;;87.00;32.17;;;;;;;;;;5077742;28;20032;-73
2021/12/03 20:20:31;;;;;;;83.67;30.57;;;;;;;;;;5077726;28;20028;-73
2021/12/03 20:23:09;;;;;;;78.53;28.92;;;;;;;;;;5077687;28;20032;-73
2021/12/03 20:26:06;;;;;;;73.53;31.65;;;;;;;;;;5096454;28;20345;-72
2021/12/03 20:31:19;;;;;;;77.55;30.77;;;;;;;;;;5096010;28;20511;-71
2021/12/03 20:38:38;;;;;;;81.53;31.95;;;;;;;;;;5095843;28;20039;-72
2021/12/03 20:41:09;;;;;;;95.05;32.53;;;;;;;;;;5096049;28;20012;-72
2021/12/03 20:46:56;;;;;;;104.57;35.97;;;;;;;;;;5086006;28;20028;-73
2021/12/03 20:52:03;;;;;;;91.68;34.25;;;;;;;;;;5095191;28;20418;-72
2021/12/03 20:57:52;;;;;;;60.50;23.25;;;;;;;;;;5095469;28;20056;-73
2021/12/03 21:08:35;;;;;;;83.60;30.73;;;;;;;;;;5095254;28;20039;-72
2021/12/03 21:11:05;;;;;;;90.70;30.45;;;;;;;;;;5076767;28;20039;-72
2021/12/03 21:13:33;;;;;;;77.55;27.23;;;;;;;;;;5095375;28;20024;-74
2021/12/03 21:18:35;;;;;;;75.15;26.80;;;;;;;;;;5094769;28;20032;-74
2021/12/03 21:23:34;;;;;;;87.82;27.90;;;;;;;;;;5094815;28;20032;-74
2021/12/03 21:26:01;;;;;;;81.55;26.75;;;;;;;;;;5076387;28;20031;-74
2021/12/03 21:39:04;;;;;;;44.35;17.48;;;;;;;;;;5095011;28;20125;-74
2021/12/03 21:41:33;;;;;;;46.22;18.02;;;;;;;;;;5094097;28;20180;-74
2021/12/03 21:44:01;;;;;;;40.78;15.85;;;;;;;;;;5094260;28;20039;-74
2021/12/03 21:46:29;;;;;;;39.78;17.00;;;;;;;;;;5075947;28;20028;-74
2021/12/03 21:48:56;;;;;;;38.50;17.17;;;;;;;;;;5075995;28;20110;-74
2021/12/03 21:51:24;;;;;;;33.42;15.15;;;;;;;;;;5094092;28;20490;-74
2021/12/03 21:53:50;;;;;;;38.90;15.18;;;;;;;;;;5094291;28;20020;-74
2021/12/03 21:56:21;;;;;;;37.72;14.55;;;;;;;;;;5094732;28;20028;-74
2021/12/03 21:58:47;;;;;;;41.25;15.68;;;;;;;;;;5075635;28;20048;-74
2021/12/03 22:01:13;;;;;;;33.30;13.95;;;;;;;;;;5075085;28;20065;-74
2021/12/03 22:03:40;;;;;;;33.17;14.35;;;;;;;;;;5093927;28;20057;-74
2021/12/03 22:06:06;;;;;;;32.85;13.80;;;;;;;;;;5093675;28;20122;-73
2021/12/03 22:08:33;;;;;;;36.38;13.88;;;;;;;;;;5076517;28;20023;-73
2021/12/03 22:11:00;;;;;;;32.38;14.25;;;;;;;;;;5093776;28;20055;-74
2021/12/03 22:13:26;;;;;;;34.63;14.38;;;;;;;;;;5093815;28;20020;-73
2021/12/03 22:15:57;;;;;;;37.40;15.63;;;;;;;;;;5075546;28;20027;-73
2021/12/03 22:18:24;;;;;;;31.38;13.43;;;;;;;;;;5075627;28;20028;-73
2021/12/03 22:20:53;;;;;;;42.75;16.25;;;;;;;;;;5093640;28;20029;-74
2021/12/03 22:23:20;;;;;;;46.38;18.42;;;;;;;;;;5075549;28;20028;-74
2021/12/03 22:25:46;;;;;;;38.05;16.90;;;;;;;;;;5093635;28;20024;-73
2021/12/03 22:28:12;;;;;;;38.13;16.70;;;;;;;;;;5093631;28;20024;-73
2021/12/03 22:30:43;;;;;;;36.03;16.38;;;;;;;;;;5075450;28;20407;-73
2021/12/03 22:33:10;;;;;;;45.22;16.95;;;;;;;;;;5075943;28;20020;-73
2021/12/03 22:35:36;;;;;;;47.40;18.10;;;;;;;;;;5094103;28;20020;-73
2021/12/03 22:38:03;;;;;;;40.83;16.50;;;;;;;;;;5075322;28;20036;-73
2021/12/03 22:40:29;;;;;;;39.25;15.80;;;;;;;;;;5093647;28;20035;-73
2021/12/03 22:42:56;;;;;;;40.25;17.13;;;;;;;;;;5093996;28;20028;-73
2021/12/03 22:45:27;;;;;;;36.67;16.38;;;;;;;;;;5075275;28;20032;-73
2021/12/03 22:47:57;;;;;;;41.60;17.17;;;;;;;;;;5075246;28;20439;-73
2021/12/03 22:51:02;;;;;;;36.92;16.92;;;;;;;;;;5075253;28;20060;-73
2021/12/03 22:53:16;;;;;;;41.33;16.15;;;;;;;;;;5091914;28;20025;-74
2021/12/03 22:55:43;;;;;;;37.42;16.88;;;;;;;;;;5093207;28;20031;-72